KNZY/NZY METAR and TAF weather

Enter ICAO airport designator
Station Type Date Time Source
KNZY METAR 2022/01/29 01:52 UTC NOAA

KNZY 290152Z 00000KT 10SM SCT250 17/01 A3015 RMK AO2 SLP209 T01720011


Station Type Date Time Source
KNZY Decoded METAR 2022/01/29 01:52 UTC NOAA

NAS NORTH ISLAND, SAN DIEGO, CA, United States (KNZY) 32-42N 117-13W 14M
Jan 28, 2022 - 08:52 PM EST / 2022.01.29 0152 UTC
Wind: Calm:0
Visibility: 10 mile(s):0
Sky conditions: partly cloudy
Temperature: 63.0 F (17.2 C)
Dew Point: 34.0 F (1.1 C)
Relative Humidity: 33%
Pressure (altimeter): 30.15 in. Hg (1020 hPa)
ob: KNZY 290152Z 00000KT 10SM SCT250 17/01 A3015 RMK AO2 SLP209 T01720011
cycle: 2

Station Type Date Time Source
KNZY TAF 2022/01/28 23:54 UTC NOAA

TAF KNZY 2823/2923 27008KT 9999 BKN250 510109 QNH3011INS
FM290100 VRB04KT 9999 SCT250 510109 QNH3010INS
FM291200 VRB04KT 9999 SCT150 SCT200 500000 QNH3007INS
FM291800 33004KT 9999 SCT150 BKN200 QNH3006INS
FM292100 30008KT 9999 BKN150 BKN200 QNH3000INS T09/2914Z T21/2921Z FS30139

Example: see airport list